sensor_id;sensor_type;location;lat;lon;timestamp;P1;durP1;ratioP1;P2;durP2;ratioP2
53545;SDS011;39432;51.902;10.844;2024-03-02T00:01:21;18.70;;;9.68;;
53545;SDS011;39432;51.902;10.844;2024-03-02T00:03:51;14.68;;;9.88;;
53545;SDS011;39432;51.902;10.844;2024-03-02T00:06:22;13.15;;;9.02;;
53545;SDS011;39432;51.902;10.844;2024-03-02T00:08:55;15.32;;;9.88;;
53545;SDS011;39432;51.902;10.844;2024-03-02T00:11:27;12.32;;;7.88;;
53545;SDS011;39432;51.902;10.844;2024-03-02T00:14:00;14.20;;;9.40;;
53545;SDS011;39432;51.902;10.844;2024-03-02T00:16:30;14.63;;;9.55;;
53545;SDS011;39432;51.902;10.844;2024-03-02T00:19:01;13.95;;;9.95;;
53545;SDS011;39432;51.902;10.844;2024-03-02T00:21:32;14.88;;;9.75;;
53545;SDS011;39432;51.902;10.844;2024-03-02T00:24:05;14.00;;;9.55;;
53545;SDS011;39432;51.902;10.844;2024-03-02T00:26:48;13.50;;;9.02;;
53545;SDS011;39432;51.902;10.844;2024-03-02T00:29:23;12.95;;;7.80;;
53545;SDS011;39432;51.902;10.844;2024-03-02T00:31:53;12.32;;;7.95;;
53545;SDS011;39432;51.902;10.844;2024-03-02T00:34:23;11.85;;;7.70;;
53545;SDS011;39432;51.902;10.844;2024-03-02T00:36:53;12.13;;;8.07;;
53545;SDS011;39432;51.902;10.844;2024-03-02T00:39:23;11.55;;;7.47;;
53545;SDS011;39432;51.902;10.844;2024-03-02T00:41:53;15.27;;;9.88;;
53545;SDS011;39432;51.902;10.844;2024-03-02T00:44:25;13.32;;;8.75;;
53545;SDS011;39432;51.902;10.844;2024-03-02T00:47:01;12.52;;;8.55;;
53545;SDS011;39432;51.902;10.844;2024-03-02T00:49:31;13.30;;;9.77;;
53545;SDS011;39432;51.902;10.844;2024-03-02T00:52:04;15.63;;;7.97;;
53545;SDS011;39432;51.902;10.844;2024-03-02T00:54:36;11.32;;;7.80;;
53545;SDS011;39432;51.902;10.844;2024-03-02T00:57:07;12.60;;;8.15;;
53545;SDS011;39432;51.902;10.844;2024-03-02T00:59:43;15.95;;;8.88;;
53545;SDS011;39432;51.902;10.844;2024-03-02T01:02:13;11.60;;;8.05;;
53545;SDS011;39432;51.902;10.844;2024-03-02T01:04:43;12.25;;;8.77;;
53545;SDS011;39432;51.902;10.844;2024-03-02T01:07:12;14.40;;;8.82;;
53545;SDS011;39432;51.902;10.844;2024-03-02T01:09:42;12.07;;;8.10;;
53545;SDS011;39432;51.902;10.844;2024-03-02T01:12:12;11.35;;;8.13;;
53545;SDS011;39432;51.902;10.844;2024-03-02T01:14:45;16.67;;;9.27;;
53545;SDS011;39432;51.902;10.844;2024-03-02T01:17:15;16.25;;;9.63;;
53545;SDS011;39432;51.902;10.844;2024-03-02T01:19:45;16.05;;;10.10;;
53545;SDS011;39432;51.902;10.844;2024-03-02T01:22:15;13.13;;;9.40;;
53545;SDS011;39432;51.902;10.844;2024-03-02T01:24:50;13.73;;;9.45;;
53545;SDS011;39432;51.902;10.844;2024-03-02T01:27:21;14.80;;;9.77;;
53545;SDS011;39432;51.902;10.844;2024-03-02T01:29:53;14.85;;;10.35;;
53545;SDS011;39432;51.902;10.844;2024-03-02T01:32:23;13.32;;;9.27;;
53545;SDS011;39432;51.902;10.844;2024-03-02T01:34:53;17.83;;;10.00;;
53545;SDS011;39432;51.902;10.844;2024-03-02T01:37:23;18.80;;;11.02;;
53545;SDS011;39432;51.902;10.844;2024-03-02T01:39:53;17.08;;;10.32;;
53545;SDS011;39432;51.902;10.844;2024-03-02T01:42:23;16.70;;;9.93;;
53545;SDS011;39432;51.902;10.844;2024-03-02T01:44:56;12.88;;;9.45;;
53545;SDS011;39432;51.902;10.844;2024-03-02T01:47:26;13.63;;;9.88;;
53545;SDS011;39432;51.902;10.844;2024-03-02T01:49:56;13.15;;;9.73;;
53545;SDS011;39432;51.902;10.844;2024-03-02T01:52:27;14.05;;;8.95;;
53545;SDS011;39432;51.902;10.844;2024-03-02T01:54:57;13.23;;;9.38;;
53545;SDS011;39432;51.902;10.844;2024-03-02T01:57:27;17.00;;;10.52;;
53545;SDS011;39432;51.902;10.844;2024-03-02T02:00:00;14.65;;;8.70;;
53545;SDS011;39432;51.902;10.844;2024-03-02T02:02:37;14.20;;;9.73;;
53545;SDS011;39432;51.902;10.844;2024-03-02T02:05:07;16.23;;;10.38;;
53545;SDS011;39432;51.902;10.844;2024-03-02T02:07:37;16.67;;;10.38;;
53545;SDS011;39432;51.902;10.844;2024-03-02T02:10:08;15.82;;;9.38;;
53545;SDS011;39432;51.902;10.844;2024-03-02T02:12:38;18.83;;;10.45;;
53545;SDS011;39432;51.902;10.844;2024-03-02T02:17:57;16.55;;;10.73;;
53545;SDS011;39432;51.902;10.844;2024-03-02T02:20:28;41.30;;;21.10;;
53545;SDS011;39432;51.902;10.844;2024-03-02T02:23:01;27.75;;;14.60;;
53545;SDS011;39432;51.902;10.844;2024-03-02T02:25:32;22.35;;;12.90;;
53545;SDS011;39432;51.902;10.844;2024-03-02T02:28:02;24.58;;;15.32;;
53545;SDS011;39432;51.902;10.844;2024-03-02T02:30:32;19.73;;;13.05;;
53545;SDS011;39432;51.902;10.844;2024-03-02T02:33:03;19.67;;;13.15;;
53545;SDS011;39432;51.902;10.844;2024-03-02T02:35:33;25.20;;;14.95;;
53545;SDS011;39432;51.902;10.844;2024-03-02T02:38:05;26.08;;;13.20;;
53545;SDS011;39432;51.902;10.844;2024-03-02T02:40:35;20.90;;;12.70;;
53545;SDS011;39432;51.902;10.844;2024-03-02T02:43:05;23.63;;;13.23;;
53545;SDS011;39432;51.902;10.844;2024-03-02T02:45:36;17.83;;;12.85;;
53545;SDS011;39432;51.902;10.844;2024-03-02T02:48:06;22.20;;;12.75;;
53545;SDS011;39432;51.902;10.844;2024-03-02T02:50:37;22.02;;;13.80;;
53545;SDS011;39432;51.902;10.844;2024-03-02T02:53:09;20.02;;;12.50;;
53545;SDS011;39432;51.902;10.844;2024-03-02T02:55:39;13.95;;;10.65;;
53545;SDS011;39432;51.902;10.844;2024-03-02T02:58:10;19.17;;;11.57;;
53545;SDS011;39432;51.902;10.844;2024-03-02T03:00:41;15.55;;;10.18;;
53545;SDS011;39432;51.902;10.844;2024-03-02T03:03:11;15.10;;;10.07;;
53545;SDS011;39432;51.902;10.844;2024-03-02T03:05:41;19.65;;;11.27;;
53545;SDS011;39432;51.902;10.844;2024-03-02T03:08:13;17.63;;;11.85;;
53545;SDS011;39432;51.902;10.844;2024-03-02T03:10:43;19.05;;;12.40;;
53545;SDS011;39432;51.902;10.844;2024-03-02T03:13:13;16.67;;;11.60;;
53545;SDS011;39432;51.902;10.844;2024-03-02T03:15:43;14.93;;;11.27;;
53545;SDS011;39432;51.902;10.844;2024-03-02T03:18:13;16.88;;;11.10;;
53545;SDS011;39432;51.902;10.844;2024-03-02T03:20:43;14.65;;;10.13;;
53545;SDS011;39432;51.902;10.844;2024-03-02T03:23:16;16.25;;;10.52;;
53545;SDS011;39432;51.902;10.844;2024-03-02T03:25:46;18.67;;;11.90;;
53545;SDS011;39432;51.902;10.844;2024-03-02T03:28:16;22.13;;;12.77;;
53545;SDS011;39432;51.902;10.844;2024-03-02T03:30:46;20.00;;;12.35;;
53545;SDS011;39432;51.902;10.844;2024-03-02T03:33:16;17.70;;;12.70;;
53545;SDS011;39432;51.902;10.844;2024-03-02T03:35:46;20.80;;;13.77;;
53545;SDS011;39432;51.902;10.844;2024-03-02T03:38:18;18.10;;;12.50;;
53545;SDS011;39432;51.902;10.844;2024-03-02T03:40:48;18.67;;;13.18;;
53545;SDS011;39432;51.902;10.844;2024-03-02T03:43:18;18.55;;;13.27;;
53545;SDS011;39432;51.902;10.844;2024-03-02T03:45:47;19.90;;;14.60;;
53545;SDS011;39432;51.902;10.844;2024-03-02T03:48:18;20.55;;;12.57;;
53545;SDS011;39432;51.902;10.844;2024-03-02T03:50:48;20.25;;;13.68;;
53545;SDS011;39432;51.902;10.844;2024-03-02T03:53:21;21.70;;;14.73;;
53545;SDS011;39432;51.902;10.844;2024-03-02T03:55:51;19.70;;;12.95;;
53545;SDS011;39432;51.902;10.844;2024-03-02T03:58:21;22.13;;;14.88;;
53545;SDS011;39432;51.902;10.844;2024-03-02T04:00:50;25.05;;;14.13;;
53545;SDS011;39432;51.902;10.844;2024-03-02T04:03:21;15.88;;;12.40;;
53545;SDS011;39432;51.902;10.844;2024-03-02T04:05:51;21.20;;;14.50;;
53545;SDS011;39432;51.902;10.844;2024-03-02T04:08:23;20.73;;;13.68;;
53545;SDS011;39432;51.902;10.844;2024-03-02T04:10:54;21.42;;;14.32;;
53545;SDS011;39432;51.902;10.844;2024-03-02T04:13:24;20.45;;;13.63;;
53545;SDS011;39432;51.902;10.844;2024-03-02T04:15:53;17.17;;;12.55;;
53545;SDS011;39432;51.902;10.844;2024-03-02T04:18:23;17.30;;;11.88;;
53545;SDS011;39432;51.902;10.844;2024-03-02T04:20:53;21.88;;;13.68;;
53545;SDS011;39432;51.902;10.844;2024-03-02T04:23:27;20.80;;;13.48;;
53545;SDS011;39432;51.902;10.844;2024-03-02T04:25:57;19.80;;;13.63;;
53545;SDS011;39432;51.902;10.844;2024-03-02T04:28:27;20.90;;;14.48;;
53545;SDS011;39432;51.902;10.844;2024-03-02T04:30:57;21.52;;;14.55;;
53545;SDS011;39432;51.902;10.844;2024-03-02T04:33:27;16.42;;;12.95;;
53545;SDS011;39432;51.902;10.844;2024-03-02T04:35:57;22.38;;;13.90;;
53545;SDS011;39432;51.902;10.844;2024-03-02T04:38:29;19.77;;;14.77;;
53545;SDS011;39432;51.902;10.844;2024-03-02T04:40:59;21.27;;;14.75;;
53545;SDS011;39432;51.902;10.844;2024-03-02T04:43:29;21.45;;;14.50;;
53545;SDS011;39432;51.902;10.844;2024-03-02T04:45:59;23.77;;;14.95;;
53545;SDS011;39432;51.902;10.844;2024-03-02T04:48:29;18.45;;;13.63;;
53545;SDS011;39432;51.902;10.844;2024-03-02T04:50:59;22.27;;;13.05;;
53545;SDS011;39432;51.902;10.844;2024-03-02T04:53:32;19.23;;;13.77;;
53545;SDS011;39432;51.902;10.844;2024-03-02T04:56:02;22.35;;;14.27;;
53545;SDS011;39432;51.902;10.844;2024-03-02T04:59:05;19.67;;;12.60;;
53545;SDS011;39432;51.902;10.844;2024-03-02T05:01:35;18.27;;;13.88;;
53545;SDS011;39432;51.902;10.844;2024-03-02T05:04:05;22.85;;;15.07;;
53545;SDS011;39432;51.902;10.844;2024-03-02T05:06:38;22.10;;;14.52;;
53545;SDS011;39432;51.902;10.844;2024-03-02T05:09:11;23.38;;;14.38;;
53545;SDS011;39432;51.902;10.844;2024-03-02T05:11:41;25.63;;;14.88;;
53545;SDS011;39432;51.902;10.844;2024-03-02T05:14:32;26.00;;;14.85;;
53545;SDS011;39432;51.902;10.844;2024-03-02T05:17:02;20.92;;;14.05;;
53545;SDS011;39432;51.902;10.844;2024-03-02T05:19:32;27.60;;;14.90;;
53545;SDS011;39432;51.902;10.844;2024-03-02T05:22:02;28.90;;;15.57;;
53545;SDS011;39432;51.902;10.844;2024-03-02T05:24:35;20.25;;;14.30;;
53545;SDS011;39432;51.902;10.844;2024-03-02T05:27:05;25.48;;;14.40;;
53545;SDS011;39432;51.902;10.844;2024-03-02T05:29:35;27.05;;;16.45;;
53545;SDS011;39432;51.902;10.844;2024-03-02T05:32:05;25.13;;;15.80;;
53545;SDS011;39432;51.902;10.844;2024-03-02T05:34:35;18.90;;;13.57;;
53545;SDS011;39432;51.902;10.844;2024-03-02T05:37:05;20.17;;;14.27;;
53545;SDS011;39432;51.902;10.844;2024-03-02T05:39:38;23.92;;;15.90;;
53545;SDS011;39432;51.902;10.844;2024-03-02T05:42:08;21.52;;;14.63;;
53545;SDS011;39432;51.902;10.844;2024-03-02T05:44:37;24.27;;;14.15;;
53545;SDS011;39432;51.902;10.844;2024-03-02T05:47:07;21.63;;;14.43;;
53545;SDS011;39432;51.902;10.844;2024-03-02T05:49:38;26.98;;;15.32;;
53545;SDS011;39432;51.902;10.844;2024-03-02T05:52:07;25.35;;;13.80;;
53545;SDS011;39432;51.902;10.844;2024-03-02T05:54:41;20.75;;;14.00;;
53545;SDS011;39432;51.902;10.844;2024-03-02T05:57:10;20.98;;;14.43;;
53545;SDS011;39432;51.902;10.844;2024-03-02T05:59:59;20.73;;;13.88;;
53545;SDS011;39432;51.902;10.844;2024-03-02T06:02:38;24.60;;;14.25;;
53545;SDS011;39432;51.902;10.844;2024-03-02T06:05:08;20.13;;;14.30;;
53545;SDS011;39432;51.902;10.844;2024-03-02T06:07:39;18.92;;;13.38;;
53545;SDS011;39432;51.902;10.844;2024-03-02T06:10:11;21.77;;;13.35;;
53545;SDS011;39432;51.902;10.844;2024-03-02T06:12:41;20.13;;;13.93;;
53545;SDS011;39432;51.902;10.844;2024-03-02T06:15:11;19.65;;;13.13;;
53545;SDS011;39432;51.902;10.844;2024-03-02T06:17:41;21.60;;;13.85;;
53545;SDS011;39432;51.902;10.844;2024-03-02T06:20:11;22.20;;;14.05;;
53545;SDS011;39432;51.902;10.844;2024-03-02T06:22:41;19.90;;;13.35;;
53545;SDS011;39432;51.902;10.844;2024-03-02T06:25:13;21.50;;;13.32;;
53545;SDS011;39432;51.902;10.844;2024-03-02T06:27:43;25.83;;;14.23;;
53545;SDS011;39432;51.902;10.844;2024-03-02T06:30:11;22.30;;;13.73;;
53545;SDS011;39432;51.902;10.844;2024-03-02T06:32:42;20.05;;;13.52;;
53545;SDS011;39432;51.902;10.844;2024-03-02T06:35:12;20.35;;;13.20;;
53545;SDS011;39432;51.902;10.844;2024-03-02T06:37:42;18.38;;;12.95;;
53545;SDS011;39432;51.902;10.844;2024-03-02T06:40:14;20.65;;;13.55;;
53545;SDS011;39432;51.902;10.844;2024-03-02T06:42:44;19.10;;;13.68;;
53545;SDS011;39432;51.902;10.844;2024-03-02T06:45:14;21.23;;;14.20;;
53545;SDS011;39432;51.902;10.844;2024-03-02T06:47:44;23.60;;;14.93;;
53545;SDS011;39432;51.902;10.844;2024-03-02T06:50:14;19.15;;;13.50;;
53545;SDS011;39432;51.902;10.844;2024-03-02T06:52:44;22.67;;;14.13;;
53545;SDS011;39432;51.902;10.844;2024-03-02T06:55:16;22.83;;;14.73;;
53545;SDS011;39432;51.902;10.844;2024-03-02T06:57:46;21.27;;;14.05;;
53545;SDS011;39432;51.902;10.844;2024-03-02T07:00:16;24.70;;;16.35;;
53545;SDS011;39432;51.902;10.844;2024-03-02T07:02:47;19.67;;;12.88;;
53545;SDS011;39432;51.902;10.844;2024-03-02T07:05:17;19.02;;;13.60;;
53545;SDS011;39432;51.902;10.844;2024-03-02T07:07:47;21.55;;;13.77;;
53545;SDS011;39432;51.902;10.844;2024-03-02T07:10:20;17.92;;;13.38;;
53545;SDS011;39432;51.902;10.844;2024-03-02T07:12:50;20.05;;;13.75;;
53545;SDS011;39432;51.902;10.844;2024-03-02T07:15:22;23.48;;;14.73;;
53545;SDS011;39432;51.902;10.844;2024-03-02T07:18:11;21.73;;;14.93;;
53545;SDS011;39432;51.902;10.844;2024-03-02T07:20:41;24.23;;;15.07;;
53545;SDS011;39432;51.902;10.844;2024-03-02T07:23:11;23.40;;;14.88;;
53545;SDS011;39432;51.902;10.844;2024-03-02T07:25:43;22.63;;;15.10;;
53545;SDS011;39432;51.902;10.844;2024-03-02T07:28:16;23.95;;;14.90;;
53545;SDS011;39432;51.902;10.844;2024-03-02T07:30:46;26.23;;;15.05;;
53545;SDS011;39432;51.902;10.844;2024-03-02T07:33:16;21.83;;;15.05;;
53545;SDS011;39432;51.902;10.844;2024-03-02T07:35:48;21.48;;;15.32;;
53545;SDS011;39432;51.902;10.844;2024-03-02T07:38:18;22.35;;;14.52;;
53545;SDS011;39432;51.902;10.844;2024-03-02T07:40:50;23.10;;;14.70;;
53545;SDS011;39432;51.902;10.844;2024-03-02T07:43:20;24.15;;;15.40;;
53545;SDS011;39432;51.902;10.844;2024-03-02T07:45:50;26.23;;;15.98;;
53545;SDS011;39432;51.902;10.844;2024-03-02T07:48:21;22.95;;;15.85;;
53545;SDS011;39432;51.902;10.844;2024-03-02T07:50:51;23.35;;;15.23;;
53545;SDS011;39432;51.902;10.844;2024-03-02T07:53:20;20.23;;;15.25;;
53545;SDS011;39432;51.902;10.844;2024-03-02T07:55:53;25.70;;;15.77;;
53545;SDS011;39432;51.902;10.844;2024-03-02T07:58:28;25.90;;;14.90;;
53545;SDS011;39432;51.902;10.844;2024-03-02T08:01:00;22.73;;;15.27;;
53545;SDS011;39432;51.902;10.844;2024-03-02T08:03:31;22.05;;;14.82;;
53545;SDS011;39432;51.902;10.844;2024-03-02T08:06:02;22.75;;;15.18;;
53545;SDS011;39432;51.902;10.844;2024-03-02T08:08:32;26.33;;;15.15;;
53545;SDS011;39432;51.902;10.844;2024-03-02T08:11:04;19.20;;;13.20;;
53545;SDS011;39432;51.902;10.844;2024-03-02T08:13:34;19.35;;;13.43;;
53545;SDS011;39432;51.902;10.844;2024-03-02T08:16:04;20.90;;;14.82;;
53545;SDS011;39432;51.902;10.844;2024-03-02T08:18:36;24.35;;;15.57;;
53545;SDS011;39432;51.902;10.844;2024-03-02T08:21:06;24.98;;;14.48;;
53545;SDS011;39432;51.902;10.844;2024-03-02T08:23:36;23.80;;;14.80;;
53545;SDS011;39432;51.902;10.844;2024-03-02T08:26:12;18.73;;;13.25;;
53545;SDS011;39432;51.902;10.844;2024-03-02T08:28:42;24.67;;;14.02;;
53545;SDS011;39432;51.902;10.844;2024-03-02T08:31:12;18.83;;;13.60;;
53545;SDS011;39432;51.902;10.844;2024-03-02T08:33:42;23.15;;;13.32;;
53545;SDS011;39432;51.902;10.844;2024-03-02T08:36:12;20.08;;;13.10;;
53545;SDS011;39432;51.902;10.844;2024-03-02T08:38:43;19.45;;;13.05;;
53545;SDS011;39432;51.902;10.844;2024-03-02T08:41:16;20.70;;;13.40;;
53545;SDS011;39432;51.902;10.844;2024-03-02T08:43:46;22.10;;;12.68;;
53545;SDS011;39432;51.902;10.844;2024-03-02T08:46:16;25.92;;;14.23;;
53545;SDS011;39432;51.902;10.844;2024-03-02T08:48:46;20.73;;;14.05;;
53545;SDS011;39432;51.902;10.844;2024-03-02T08:51:15;19.63;;;12.73;;
53545;SDS011;39432;51.902;10.844;2024-03-02T08:53:45;20.02;;;12.27;;
53545;SDS011;39432;51.902;10.844;2024-03-02T08:56:18;18.48;;;13.52;;
53545;SDS011;39432;51.902;10.844;2024-03-02T08:58:50;26.20;;;13.55;;
53545;SDS011;39432;51.902;10.844;2024-03-02T09:01:21;19.10;;;13.48;;
53545;SDS011;39432;51.902;10.844;2024-03-02T09:03:51;22.42;;;12.77;;
53545;SDS011;39432;51.902;10.844;2024-03-02T09:06:21;19.55;;;12.48;;
53545;SDS011;39432;51.902;10.844;2024-03-02T09:08:51;17.73;;;11.73;;
53545;SDS011;39432;51.902;10.844;2024-03-02T09:11:23;16.33;;;12.02;;
53545;SDS011;39432;51.902;10.844;2024-03-02T09:13:53;18.33;;;11.70;;
53545;SDS011;39432;51.902;10.844;2024-03-02T09:16:24;20.20;;;11.65;;
53545;SDS011;39432;51.902;10.844;2024-03-02T09:18:57;17.02;;;10.90;;
53545;SDS011;39432;51.902;10.844;2024-03-02T09:21:27;19.38;;;11.63;;
53545;SDS011;39432;51.902;10.844;2024-03-02T09:23:58;13.68;;;9.43;;
53545;SDS011;39432;51.902;10.844;2024-03-02T09:26:31;24.77;;;11.98;;
53545;SDS011;39432;51.902;10.844;2024-03-02T09:29:01;14.23;;;10.25;;
53545;SDS011;39432;51.902;10.844;2024-03-02T09:31:31;17.00;;;10.65;;
53545;SDS011;39432;51.902;10.844;2024-03-02T09:34:01;16.77;;;10.25;;
53545;SDS011;39432;51.902;10.844;2024-03-02T09:36:31;17.08;;;10.38;;
53545;SDS011;39432;51.902;10.844;2024-03-02T09:39:01;17.35;;;10.07;;
53545;SDS011;39432;51.902;10.844;2024-03-02T09:41:34;16.83;;;10.75;;
53545;SDS011;39432;51.902;10.844;2024-03-02T09:44:05;18.73;;;10.77;;
53545;SDS011;39432;51.902;10.844;2024-03-02T09:46:35;15.65;;;10.68;;
53545;SDS011;39432;51.902;10.844;2024-03-02T09:49:05;17.98;;;10.52;;
53545;SDS011;39432;51.902;10.844;2024-03-02T09:51:35;16.60;;;11.57;;
53545;SDS011;39432;51.902;10.844;2024-03-02T09:54:06;21.30;;;11.32;;
53545;SDS011;39432;51.902;10.844;2024-03-02T09:56:50;29.23;;;17.83;;
53545;SDS011;39432;51.902;10.844;2024-03-02T09:59:20;20.50;;;11.77;;
53545;SDS011;39432;51.902;10.844;2024-03-02T10:01:55;38.85;;;19.95;;
53545;SDS011;39432;51.902;10.844;2024-03-02T10:04:27;17.35;;;10.20;;
53545;SDS011;39432;51.902;10.844;2024-03-02T10:07:12;18.25;;;11.40;;
53545;SDS011;39432;51.902;10.844;2024-03-02T10:09:43;19.33;;;11.13;;
53545;SDS011;39432;51.902;10.844;2024-03-02T10:12:16;21.65;;;9.13;;
53545;SDS011;39432;51.902;10.844;2024-03-02T10:14:47;19.92;;;10.65;;
53545;SDS011;39432;51.902;10.844;2024-03-02T10:17:19;18.90;;;12.00;;
53545;SDS011;39432;51.902;10.844;2024-03-02T10:19:49;18.95;;;11.57;;
53545;SDS011;39432;51.902;10.844;2024-03-02T10:22:19;28.00;;;11.30;;
53545;SDS011;39432;51.902;10.844;2024-03-02T10:24:53;16.95;;;10.45;;
53545;SDS011;39432;51.902;10.844;2024-03-02T10:27:28;18.70;;;11.30;;
53545;SDS011;39432;51.902;10.844;2024-03-02T10:29:58;21.33;;;11.85;;
53545;SDS011;39432;51.902;10.844;2024-03-02T10:32:29;20.20;;;11.93;;
53545;SDS011;39432;51.902;10.844;2024-03-02T10:34:59;18.02;;;11.57;;
53545;SDS011;39432;51.902;10.844;2024-03-02T10:37:30;39.45;;;27.92;;
53545;SDS011;39432;51.902;10.844;2024-03-02T10:40:04;12.77;;;7.85;;
53545;SDS011;39432;51.902;10.844;2024-03-02T10:42:37;9.15;;;4.70;;
53545;SDS011;39432;51.902;10.844;2024-03-02T10:45:08;9.98;;;5.18;;
53545;SDS011;39432;51.902;10.844;2024-03-02T10:47:39;7.35;;;4.63;;
53545;SDS011;39432;51.902;10.844;2024-03-02T10:50:11;9.52;;;4.97;;
53545;SDS011;39432;51.902;10.844;2024-03-02T10:52:41;7.82;;;4.22;;
53545;SDS011;39432;51.902;10.844;2024-03-02T10:55:12;6.55;;;4.10;;
53545;SDS011;39432;51.902;10.844;2024-03-02T10:57:45;8.02;;;4.55;;
53545;SDS011;39432;51.902;10.844;2024-03-02T11:00:21;12.27;;;4.88;;
53545;SDS011;39432;51.902;10.844;2024-03-02T11:02:58;7.53;;;4.43;;
53545;SDS011;39432;51.902;10.844;2024-03-02T11:05:36;7.68;;;4.55;;
53545;SDS011;39432;51.902;10.844;2024-03-02T11:08:09;7.78;;;4.03;;
53545;SDS011;39432;51.902;10.844;2024-03-02T11:10:50;11.00;;;5.22;;
53545;SDS011;39432;51.902;10.844;2024-03-02T11:13:24;11.52;;;4.85;;
53545;SDS011;39432;51.902;10.844;2024-03-02T11:16:05;8.57;;;5.40;;
53545;SDS011;39432;51.902;10.844;2024-03-02T11:18:51;8.70;;;5.35;;
53545;SDS011;39432;51.902;10.844;2024-03-02T11:26:57;8.02;;;5.18;;
53545;SDS011;39432;51.902;10.844;2024-03-02T11:33:51;9.50;;;5.00;;
53545;SDS011;39432;51.902;10.844;2024-03-02T11:45:46;10.57;;;5.53;;
53545;SDS011;39432;51.902;10.844;2024-03-02T12:20:55;7.28;;;4.88;;
53545;SDS011;39432;51.902;10.844;2024-03-02T12:24:15;6.85;;;3.60;;
53545;SDS011;39432;51.902;10.844;2024-03-02T12:35:01;7.03;;;3.30;;
53545;SDS011;39432;51.902;10.844;2024-03-02T12:42:48;6.90;;;3.60;;
53545;SDS011;39432;51.902;10.844;2024-03-02T12:55:20;4.73;;;2.10;;
53545;SDS011;39432;51.902;10.844;2024-03-02T12:58:44;4.63;;;2.28;;
53545;SDS011;39432;51.902;10.844;2024-03-02T13:02:26;4.85;;;2.10;;
53545;SDS011;39432;51.902;10.844;2024-03-02T13:06:13;4.55;;;2.10;;
53545;SDS011;39432;51.902;10.844;2024-03-02T13:10:12;3.25;;;1.50;;
53545;SDS011;39432;51.902;10.844;2024-03-02T13:14:21;4.28;;;1.70;;
53545;SDS011;39432;51.902;10.844;2024-03-02T13:32:42;6.03;;;1.73;;
53545;SDS011;39432;51.902;10.844;2024-03-02T13:57:13;3.00;;;1.50;;
53545;SDS011;39432;51.902;10.844;2024-03-02T14:01:00;9.25;;;3.70;;
53545;SDS011;39432;51.902;10.844;2024-03-02T14:37:45;5.03;;;2.08;;
53545;SDS011;39432;51.902;10.844;2024-03-02T14:40:15;7.82;;;2.13;;
53545;SDS011;39432;51.902;10.844;2024-03-02T14:42:45;3.75;;;2.25;;
53545;SDS011;39432;51.902;10.844;2024-03-02T14:45:16;4.95;;;2.25;;
53545;SDS011;39432;51.902;10.844;2024-03-02T14:47:45;3.05;;;1.70;;
53545;SDS011;39432;51.902;10.844;2024-03-02T14:50:21;3.17;;;1.33;;
53545;SDS011;39432;51.902;10.844;2024-03-02T14:52:52;4.05;;;1.48;;
53545;SDS011;39432;51.902;10.844;2024-03-02T14:57:58;4.68;;;1.38;;
53545;SDS011;39432;51.902;10.844;2024-03-02T15:00:31;4.82;;;1.67;;
53545;SDS011;39432;51.902;10.844;2024-03-02T15:03:10;3.63;;;1.83;;
53545;SDS011;39432;51.902;10.844;2024-03-02T15:08:34;17.35;;;3.45;;
53545;SDS011;39432;51.902;10.844;2024-03-02T15:11:13;3.63;;;2.03;;
53545;SDS011;39432;51.902;10.844;2024-03-02T15:13:49;6.90;;;2.50;;
53545;SDS011;39432;51.902;10.844;2024-03-02T15:16:28;3.33;;;1.95;;
53545;SDS011;39432;51.902;10.844;2024-03-02T15:19:02;4.65;;;1.95;;
53545;SDS011;39432;51.902;10.844;2024-03-02T15:21:46;7.78;;;3.35;;
53545;SDS011;39432;51.902;10.844;2024-03-02T15:24:27;4.43;;;3.05;;
53545;SDS011;39432;51.902;10.844;2024-03-02T15:32:59;5.22;;;2.70;;
53545;SDS011;39432;51.902;10.844;2024-03-02T15:35:47;5.97;;;3.08;;
53545;SDS011;39432;51.902;10.844;2024-03-02T15:39:02;7.18;;;3.15;;
53545;SDS011;39432;51.902;10.844;2024-03-02T15:44:51;5.50;;;3.17;;
53545;SDS011;39432;51.902;10.844;2024-03-02T15:47:41;6.07;;;2.55;;
53545;SDS011;39432;51.902;10.844;2024-03-02T15:50:35;7.60;;;3.58;;
53545;SDS011;39432;51.902;10.844;2024-03-02T15:53:21;7.53;;;3.13;;
53545;SDS011;39432;51.902;10.844;2024-03-02T15:56:02;6.40;;;3.45;;
53545;SDS011;39432;51.902;10.844;2024-03-02T15:58:57;5.20;;;3.00;;
53545;SDS011;39432;51.902;10.844;2024-03-02T16:01:39;5.43;;;3.20;;
53545;SDS011;39432;51.902;10.844;2024-03-02T16:04:32;7.93;;;3.55;;
53545;SDS011;39432;51.902;10.844;2024-03-02T16:07:26;10.00;;;4.07;;
53545;SDS011;39432;51.902;10.844;2024-03-02T16:10:13;7.95;;;3.58;;
53545;SDS011;39432;51.902;10.844;2024-03-02T16:13:09;5.47;;;2.95;;
53545;SDS011;39432;51.902;10.844;2024-03-02T16:16:03;6.20;;;3.40;;
53545;SDS011;39432;51.902;10.844;2024-03-02T16:18:33;6.07;;;2.72;;
53545;SDS011;39432;51.902;10.844;2024-03-02T16:21:21;13.15;;;2.67;;
53545;SDS011;39432;51.902;10.844;2024-03-02T16:24:26;3.90;;;2.20;;
53545;SDS011;39432;51.902;10.844;2024-03-02T16:27:02;15.02;;;5.28;;
53545;SDS011;39432;51.902;10.844;2024-03-02T16:29:49;8.65;;;3.22;;
53545;SDS011;39432;51.902;10.844;2024-03-02T16:35:28;4.93;;;2.33;;
53545;SDS011;39432;51.902;10.844;2024-03-02T16:38:18;8.70;;;2.67;;
53545;SDS011;39432;51.902;10.844;2024-03-02T16:41:04;10.90;;;2.58;;
53545;SDS011;39432;51.902;10.844;2024-03-02T16:43:57;10.23;;;2.67;;
53545;SDS011;39432;51.902;10.844;2024-03-02T16:46:45;4.97;;;3.08;;
53545;SDS011;39432;51.902;10.844;2024-03-02T16:49:28;6.53;;;3.83;;
53545;SDS011;39432;51.902;10.844;2024-03-02T16:52:00;9.82;;;5.10;;
53545;SDS011;39432;51.902;10.844;2024-03-02T16:54:47;7.55;;;4.60;;
53545;SDS011;39432;51.902;10.844;2024-03-02T16:57:40;10.10;;;6.18;;
53545;SDS011;39432;51.902;10.844;2024-03-02T17:00:22;10.65;;;6.28;;
53545;SDS011;39432;51.902;10.844;2024-03-02T17:03:09;12.45;;;7.15;;
53545;SDS011;39432;51.902;10.844;2024-03-02T17:05:39;14.52;;;7.65;;
53545;SDS011;39432;51.902;10.844;2024-03-02T17:08:09;17.45;;;9.00;;
53545;SDS011;39432;51.902;10.844;2024-03-02T17:10:39;15.88;;;7.93;;
53545;SDS011;39432;51.902;10.844;2024-03-02T17:13:10;12.43;;;8.50;;
53545;SDS011;39432;51.902;10.844;2024-03-02T17:15:40;17.35;;;9.93;;
53545;SDS011;39432;51.902;10.844;2024-03-02T17:18:17;12.90;;;8.57;;
53545;SDS011;39432;51.902;10.844;2024-03-02T17:20:49;19.10;;;10.27;;
53545;SDS011;39432;51.902;10.844;2024-03-02T17:23:29;17.55;;;10.48;;
53545;SDS011;39432;51.902;10.844;2024-03-02T17:26:05;16.40;;;9.68;;
53545;SDS011;39432;51.902;10.844;2024-03-02T17:28:45;17.20;;;10.65;;
53545;SDS011;39432;51.902;10.844;2024-03-02T17:31:16;16.08;;;11.07;;
53545;SDS011;39432;51.902;10.844;2024-03-02T17:34:15;17.42;;;11.05;;
53545;SDS011;39432;51.902;10.844;2024-03-02T17:36:45;39.53;;;22.02;;
53545;SDS011;39432;51.902;10.844;2024-03-02T17:39:18;28.08;;;15.55;;
53545;SDS011;39432;51.902;10.844;2024-03-02T17:41:48;34.13;;;23.10;;
53545;SDS011;39432;51.902;10.844;2024-03-02T17:44:21;16.15;;;9.77;;
53545;SDS011;39432;51.902;10.844;2024-03-02T17:46:55;14.10;;;9.77;;